Latest Weather Observations for Kowanyama

IDQ60801

Issued at 5:52 pm EST Tuesday 26 January 2021 (issued every 10 minutes, with the page automatically refreshed every 10 minutes)

About weather observations | Map of weather stations | Latest weather observations for QLD | Other Formats
Station Details ID: 029038 Name: KOWANYAMA AIRPORT Lat: -15.48 Lon: 141.75 Height: 9.6 m
Data from the previous 72 hours. | See also: Recent months at Kowanyama
Date/Time
EST
Temp
°C
App
Temp
°C
Dew
Point
°C
Rel
Hum
%
Delta-T
°C
Wind Press
QNH
hPa
Press
MSL
hPa
Rain since
9am
mm
Dir  Spd
km/h
Gust
km/h
Spd
kts
Gust
kts
26/05:30pm 24.5 28.8 23.6 95 0.6 NE 7 11 4 6 1001.2 1001.1 10.2
26/05:12pm 24.5 28.5 23.8 96 0.5 NNE 9 13 5 7 1000.9 1000.8 10.0
26/05:00pm 24.6 29.3 23.9 96 0.5 NNE 6 9 3 5 1001.1 1001.0 10.0
26/04:30pm 24.6 28.7 23.9 96 0.5 N 9 13 5 7 1001.2 1001.1 9.8
26/04:00pm 24.6 28.7 23.9 96 0.5 N 9 13 5 7 1002.0 1001.9 9.6
26/03:30pm 24.7 29.4 24.0 96 0.5 N 6 9 3 5 1002.4 1002.3 9.2
26/03:00pm 24.7 29.2 24.0 96 0.5 NNE 7 13 4 7 1002.6 1002.5 8.4
26/02:38pm 24.8 29.5 24.3 97 0.3 NNE 7 11 4 6 1002.3 1002.2 7.8
26/02:30pm 24.7 29.0 24.2 97 0.3 NE 9 13 5 7 1002.4 1002.3 7.4
26/02:00pm 24.5 28.6 24.0 97 0.3 NNE 9 15 5 8 1002.5 1002.4 6.0
26/01:50pm 24.5 29.0 24.0 97 0.3 ENE 7 9 4 5 1002.7 1002.6 5.8
26/01:47pm 24.4 28.9 23.9 97 0.3 ENE 7 9 4 5 1002.8 1002.7 5.8
26/01:30pm 24.4 28.2 23.5 95 0.6 ENE 9 15 5 8 1002.9 1002.8 4.4
26/01:25pm 24.5 28.5 23.8 96 0.5 NE 9 13 5 7 1002.9 1002.8 3.2
26/01:08pm 24.7 28.7 23.8 95 0.6 NE 9 13 5 7 1002.9 1002.8 1.6
26/01:00pm 24.7 28.3 23.8 95 0.6 NE 11 15 6 8 1003.0 1002.9 1.6
26/12:36pm 24.9 28.9 23.7 93 0.8 NE 9 15 5 8 1003.1 1003.0 1.0
26/12:30pm 24.9 29.0 23.9 94 0.7 NE 9 15 5 8 1003.2 1003.1 0.8
26/12:23pm 24.9 28.7 23.5 92 1.0 NE 9 15 5 8 1003.3 1003.2 0.6
26/12:14pm 25.0 28.5 23.6 92 1.0 NE 11 17 6 9 1003.3 1003.2 0.4
26/12:00pm 25.1 28.1 23.3 90 1.2 NE 13 19 7 10 1003.3 1003.2 0.2
26/11:30am 25.9 29.2 23.8 88 1.4 NE 13 19 7 10 1003.5 1003.4 0.0
26/11:00am 25.9 29.0 23.6 87 1.6 ENE 13 19 7 10 1003.5 1003.4 0.0
26/10:30am 26.1 29.9 24.0 88 1.4 NE 11 15 6 8 1003.8 1003.7 0.0
26/10:00am 25.9 29.7 24.1 90 1.2 NE 11 17 6 9 1003.9 1003.8 0.0
26/09:30am 25.4 29.8 24.4 94 0.7 NE 9 15 5 8 1004.0 1003.9 0.0
26/09:00am 25.0 28.3 23.8 93 0.8 NE 13 20 7 11 1004.1 1004.0 39.4
26/08:30am 24.8 28.4 23.8 94 0.7 ENE 11 20 6 11 1003.9 1003.8 39.4
26/08:25am 24.7 28.3 23.8 95 0.6 ENE 11 20 6 11 1003.9 1003.8 39.4
26/08:00am 24.5 28.1 23.8 96 0.5 ENE 11 19 6 10 1003.7 1003.6 39.4
26/07:53am 24.4 28.0 23.7 96 0.5 ENE 11 17 6 9 1003.6 1003.5 39.4
26/07:47am 24.4 28.0 23.7 96 0.5 ENE 11 15 6 8 1003.6 1003.5 39.4
26/07:30am 24.3 28.7 23.8 97 0.3 NNE 7 13 4 7 1003.7 1003.6 39.2
26/07:08am 24.2 27.3 23.5 96 0.5 NE 13 17 7 9 1003.5 1003.4 37.6
26/07:00am 24.2 28.4 23.5 96 0.5 ENE 7 15 4 8 1003.3 1003.2 37.2
26/06:54am 24.1 28.3 23.4 96 0.5 ENE 7 11 4 6 1003.0 1002.9 37.0
26/06:30am 24.0 27.6 23.1 95 0.6 ENE 9 13 5 7 1002.6 1002.5 36.8
26/06:02am 24.1 28.2 23.2 95 0.6 NNE 7 11 4 6 1002.3 1002.2 36.8
26/06:00am 24.1 28.2 23.2 95 0.6 N 7 11 4 6 1002.2 1002.1 36.8
26/05:30am 24.3 26.8 23.1 93 0.8 N 15 22 8 12 1001.6 1001.5 36.6
26/05:00am 25.1 29.0 24.2 95 0.6 NE 11 19 6 10 1001.0 1000.9 36.4
26/04:30am 25.2 28.8 24.3 95 0.6 ENE 13 20 7 11 1001.4 1001.3 36.4
26/04:00am 25.1 29.1 24.4 96 0.5 NE 11 17 6 9 1002.0 1001.9 36.0
26/03:30am 25.0 29.3 24.3 96 0.5 NE 9 15 5 8 1002.1 1002.0 36.0
26/03:00am 25.0 28.2 24.3 96 0.5 NE 15 22 8 12 1002.1 1002.0 36.0
26/02:38am 24.9 28.4 24.2 96 0.5 NE 13 20 7 11 1002.3 1002.2 35.8
26/02:30am 24.9 27.6 24.2 96 0.5 NE 17 26 9 14 1002.6 1002.5 35.8
26/02:24am 24.9 27.3 24.2 96 0.5 NE 19 28 10 15 1002.7 1002.6 35.8
26/02:10am 24.8 28.0 24.3 97 0.3 NE 15 26 8 14 1002.7 1002.6 35.4
26/02:00am 24.8 28.0 24.3 97 0.3 ENE 15 24 8 13 1002.9 1002.8 33.0
26/01:45am 24.7 28.6 24.2 97 0.3 NE 11 17 6 9 1003.3 1003.2 32.0
26/01:35am 24.6 28.4 24.1 97 0.3 NE 11 19 6 10 1003.6 1003.5 31.4
26/01:30am 24.5 28.3 24.0 97 0.3 NE 11 19 6 10 1003.6 1003.5 31.4
26/01:00am 24.4 28.0 23.7 96 0.5 ENE 11 15 6 8 1004.2 1004.1 31.4
26/12:30am 24.5 28.9 23.8 96 0.5 ENE 7 11 4 6 1004.6 1004.5 30.8
26/12:11am 24.5 28.3 24.0 97 0.3 E 11 19 6 10 1004.9 1004.8 29.8
26/12:03am 24.5 28.3 24.0 97 0.3 ENE 11 19 6 10 1005.2 1005.1 29.0
26/12:00am 24.5 28.3 24.0 97 0.3 ENE 11 15 6 8 1005.3 1005.2 28.8
 
Date/Time
EST
Temp
°C
App
Temp
°C
Dew
Point
°C
Rel
Hum
%
Delta-T
°C
Wind Press
QNH
hPa
Press
MSL
hPa
Rain since
9am
mm
Dir  Spd
km/h
Gust
km/h
Spd
kts
Gust
kts
25/11:30pm 24.5 28.9 23.8 96 0.5 NE 7 11 4 6 1005.6 1005.5 23.4
25/11:04pm 24.7 28.3 23.8 95 0.6 ENE 11 19 6 10 1005.6 1005.5 13.0
25/11:00pm 24.7 28.3 23.8 95 0.6 ENE 11 20 6 11 1005.5 1005.4 12.4
25/10:30pm 24.8 28.8 23.8 94 0.7 ESE 9 15 5 8 1005.1 1005.0 11.8
25/10:00pm 24.7 28.3 23.8 95 0.6 ENE 11 17 6 9 1004.6 1004.5 11.8
25/09:30pm 24.7 27.9 23.7 94 0.7 ENE 13 22 7 12 1004.8 1004.7 11.4
25/09:00pm 24.6 27.8 23.7 95 0.6 E 13 24 7 13 1004.8 1004.7 11.0
25/08:30pm 24.6 27.8 23.7 95 0.6 E 13 20 7 11 1004.5 1004.4 10.8
25/08:00pm 24.7 27.6 23.8 95 0.6 E 15 24 8 13 1004.6 1004.5 10.8
25/07:49pm 24.9 28.3 24.0 95 0.6 E 13 19 7 10 1004.7 1004.6 10.8
25/07:36pm 24.9 28.7 24.0 95 0.6 E 11 19 6 10 1004.6 1004.5 10.6
25/07:30pm 25.0 28.8 24.1 95 0.6 ESE 11 19 6 10 1004.5 1004.4 10.6
25/07:25pm 25.1 29.1 24.4 96 0.5 ESE 11 15 6 8 1004.5 1004.4 10.6
25/07:00pm 25.0 28.9 24.3 96 0.5 ESE 11 13 6 7 1004.1 1004.0 9.6
25/06:55pm 25.0 29.3 24.3 96 0.5 SE 9 13 5 7 1004.0 1003.9 9.4
25/06:43pm 24.8 28.9 23.9 95 0.6 E 9 13 5 7 1004.1 1004.0 8.6
25/06:30pm 24.8 28.8 23.8 94 0.7 ENE 9 13 5 7 1004.0 1003.9 8.0
25/06:19pm 24.9 28.6 23.9 94 0.7 ENE 11 22 6 12 1003.8 1003.7 7.4
25/06:17pm 25.0 28.3 23.8 93 0.8 E 13 22 7 12 1003.7 1003.6 7.0
25/06:00pm 25.4 28.6 24.4 94 0.7 ESE 15 20 8 11 1003.2 1003.1 6.4
25/05:30pm 25.7 29.3 24.3 92 1.0 E 13 20 7 11 1002.8 1002.7 6.2
25/05:18pm 25.9 29.6 24.5 92 1.0 ENE 13 22 7 12 1002.4 1002.3 6.2
25/05:00pm 25.6 28.3 24.2 92 1.0 NNE 17 30 9 16 1002.2 1002.1 6.0
25/04:46pm 26.0 28.1 23.1 84 2.0 NNE 17 26 9 14 1002.4 1002.3 1.0
25/04:30pm 30.6 34.8 23.5 66 4.9 ENE 7 11 4 6 1002.1 1002.0 0.0
25/04:00pm 31.7 35.1 22.7 59 6.2 NNE 9 17 5 9 1002.3 1002.2 0.0
25/03:30pm 32.2 34.4 22.6 57 6.6 NE 15 24 8 13 1002.6 1002.5 0.0
25/03:00pm 31.5 34.4 23.1 61 5.8 NNE 13 24 7 13 1002.9 1002.8 0.0
25/02:30pm 30.8 34.1 23.2 64 5.2 ENE 11 20 6 11 1003.5 1003.4 0.0
25/02:00pm 31.2 35.2 23.8 64 5.1 E 9 15 5 8 1003.9 1003.8 0.0
25/01:30pm 29.3 31.7 23.0 69 4.3 NNE 15 26 8 14 1004.4 1004.3 0.0
25/01:00pm 31.6 34.3 23.4 61 5.7 NE 15 26 8 14 1004.6 1004.5 0.0
25/12:30pm 31.4 33.3 22.7 60 6.0 NE 17 22 9 12 1005.0 1004.9 0.0
25/12:00pm 30.8 32.2 22.9 62 5.4 NE 20 30 11 16 1005.3 1005.2 0.0
25/11:30am 30.8 33.1 22.7 62 5.5 NE 15 26 8 14 1005.6 1005.5 0.0
25/11:00am 31.1 33.9 23.0 62 5.6 ENE 13 20 7 11 1005.9 1005.8 0.0
25/10:30am 30.0 32.6 22.7 65 5.0 NE 13 22 7 12 1006.4 1006.3 0.0
25/10:00am 30.0 31.9 22.7 65 5.0 NE 17 24 9 13 1006.3 1006.2 0.0
25/09:30am 30.1 32.0 22.8 65 5.0 NE 17 26 9 14 1006.1 1006.0 0.0
25/09:00am 29.8 32.6 23.0 67 4.7 NE 13 24 7 13 1006.2 1006.1 0.0
25/08:30am 29.2 31.5 22.7 68 4.4 ENE 15 24 8 13 1006.3 1006.2 0.0
25/08:00am 28.1 30.5 22.3 70 3.9 ENE 13 20 7 11 1006.1 1006.0 0.0
25/07:30am 26.9 29.5 22.7 78 2.8 ENE 13 20 7 11 1005.8 1005.7 0.0
25/07:00am 26.1 29.3 22.4 80 2.5 NE 9 13 5 7 1005.6 1005.5 0.0
25/06:30am 25.5 28.7 22.4 83 2.1 ENE 9 15 5 8 1005.1 1005.0 0.0
25/06:00am 25.4 28.5 22.1 82 2.2 ENE 9 15 5 8 1004.8 1004.7 0.0
25/05:30am 25.6 29.1 22.1 81 2.3 ENE 7 13 4 7 1004.8 1004.7 0.0
25/05:00am 25.7 28.3 22.0 80 2.5 ENE 11 15 6 8 1004.7 1004.6 0.0
25/04:30am 25.8 28.9 22.1 80 2.5 ENE 9 15 5 8 1004.6 1004.5 0.0
25/04:00am 25.9 29.1 22.4 81 2.4 NE 9 15 5 8 1004.8 1004.7 0.0
25/03:30am 25.8 30.4 23.1 85 1.8 NNE 4 9 2 5 1005.0 1004.9 0.0
25/03:00am 25.8 30.4 23.1 85 1.8 N 4 7 2 4 1004.9 1004.8 0.0
25/02:30am 25.9 29.8 23.0 84 2.0 ENE 7 13 4 7 1004.9 1004.8 0.0
25/02:00am 25.7 29.9 23.2 86 1.7 E 6 9 3 5 1005.2 1005.1 0.0
25/01:30am 25.8 29.9 23.3 86 1.7 ESE 7 9 4 5 1005.9 1005.8 0.0
25/01:00am 25.5 29.7 23.2 87 1.6 ENE 6 7 3 4 1006.5 1006.4 0.0
25/12:30am 25.6 29.2 23.1 86 1.7 NNE 9 13 5 7 1006.9 1006.8 0.0
25/12:00am 25.7 29.5 23.4 87 1.6 NNE 9 13 5 7 1007.5 1007.4 0.0
 
Date/Time
EST
Temp
°C
App
Temp
°C
Dew
Point
°C
Rel
Hum
%
Delta-T
°C
Wind Press
QNH
hPa
Press
MSL
hPa
Rain since
9am
mm
Dir  Spd
km/h
Gust
km/h
Spd
kts
Gust
kts
24/11:30pm 25.7 30.0 23.6 88 1.4 NNE 7 11 4 6 1007.7 1007.6 0.0
24/11:00pm 25.7 29.1 23.4 87 1.6 NNE 11 20 6 11 1008.1 1008.0 0.0
24/10:30pm 25.7 29.5 23.4 87 1.6 NNE 9 20 5 11 1008.1 1008.0 0.0
24/10:00pm 25.3 28.8 23.5 90 1.2 N 11 19 6 10 1007.7 1007.6 0.0
24/09:30pm 25.6 27.3 22.3 82 2.2 NNE 17 30 9 16 1007.4 1007.3 0.0
24/09:00pm 28.0 31.5 23.6 77 3.0 N 11 17 6 9 1006.7 1006.6 0.0
24/08:30pm 28.8 32.6 23.5 73 3.6 NW 9 11 5 6 1006.1 1006.0 0.0
24/08:00pm 29.3 33.4 24.0 73 3.7 NW 9 13 5 7 1005.7 1005.6 0.0
24/07:30pm 29.9 35.8 24.1 71 4.0 CALM 0 0 0 0 1005.5 1005.4 0.0
24/07:00pm 30.7 34.7 22.8 62 5.4 SSE 6 7 3 4 1005.2 1005.1 0.0
24/06:30pm 31.2 34.9 22.5 60 5.9 SSE 7 9 4 5 1004.7 1004.6 0.0
24/06:00pm 31.8 35.0 21.6 54 6.9 SE 7 9 4 5 1004.3 1004.2 0.0
24/05:30pm 32.4 35.3 21.0 51 7.7 ESE 7 9 4 5 1004.0 1003.9 0.0
24/05:00pm 32.3 34.9 20.5 49 7.9 ESE 7 11 4 6 1003.8 1003.7 0.0
24/04:30pm 33.5 35.8 20.6 46 8.6 ESE 9 15 5 8 1004.0 1003.9 0.0
24/04:00pm 33.3 36.2 21.1 48 8.2 ENE 7 13 4 7 1004.2 1004.1 0.0
24/03:30pm 33.3 35.8 21.1 48 8.2 E 9 13 5 7 1004.6 1004.5 0.0
24/03:00pm 33.2 35.7 21.7 51 7.8 ESE 11 15 6 8 1004.9 1004.8 0.0
24/02:30pm 33.2 36.1 21.7 51 7.8 ESE 9 15 5 8 1005.3 1005.2 0.0
24/02:00pm 33.1 35.9 21.6 51 7.8 ENE 9 17 5 9 1005.6 1005.5 0.0
24/01:30pm 32.6 35.4 20.8 49 7.9 ENE 7 19 4 10 1005.9 1005.8 0.0
24/01:00pm 32.4 35.4 21.3 52 7.5 ENE 7 11 4 6 1006.2 1006.1 0.0
24/12:30pm 32.2 34.7 21.1 52 7.5 ENE 9 19 5 10 1006.6 1006.5 0.0
24/12:00pm 31.7 33.6 20.6 51 7.4 ENE 11 17 6 9 1007.0 1006.9 0.0
24/11:30am 31.4 33.9 21.0 54 7.0 NE 9 15 5 8 1007.3 1007.2 0.0
24/11:00am 31.0 32.8 20.3 53 7.1 NE 11 15 6 8 1007.7 1007.6 0.0
24/10:30am 30.8 32.7 21.3 57 6.4 E 13 19 7 10 1008.0 1007.9 0.0
24/10:00am 29.9 31.4 20.5 57 6.2 ENE 13 20 7 11 1008.3 1008.2 0.0
24/09:30am 29.4 30.8 20.3 58 6.0 ENE 13 22 7 12 1008.4 1008.3 0.0
24/09:00am 28.8 30.4 20.8 62 5.3 E 13 20 7 11 1008.4 1008.3 0.0
24/08:30am 27.9 29.5 20.7 65 4.8 ENE 13 20 7 11 1008.3 1008.2 0.0
24/08:00am 27.3 29.9 22.0 73 3.6 ENE 11 20 6 11 1008.0 1007.9 0.0
24/07:30am 26.4 29.7 22.5 79 2.6 ENE 9 11 5 6 1007.9 1007.8 0.0
24/07:00am 25.2 29.1 22.9 87 1.6 ENE 7 9 4 5 1007.6 1007.5 0.0
24/06:30am 24.8 28.9 22.9 89 1.3 ENE 6 7 3 4 1007.3 1007.2 0.0
24/06:00am 24.9 29.0 23.0 89 1.3 ENE 6 9 3 5 1007.3 1007.2 0.0
24/05:30am 24.8 29.0 23.2 91 1.1 NE 6 9 3 5 1007.0 1006.9 0.0
24/05:00am 24.9 29.8 23.1 90 1.2 ENE 2 7 1 4 1006.7 1006.6 0.0
24/04:30am 25.0 29.8 22.9 88 1.4 NNE 2 6 1 3 1006.6 1006.5 0.0
24/04:00am 25.1 28.9 22.8 87 1.6 NNE 7 9 4 5 1006.6 1006.5 0.0
24/03:30am 25.2 29.2 23.1 88 1.4 NNE 7 9 4 5 1006.8 1006.7 0.0
24/03:00am 25.4 29.8 23.5 89 1.3 ENE 6 7 3 4 1006.9 1006.8 0.0
24/02:30am 25.4 29.5 23.3 88 1.4 NE 7 11 4 6 1007.2 1007.1 0.0
24/02:00am 25.5 29.6 23.2 87 1.6 NE 7 11 4 6 1007.5 1007.4 0.0
24/01:30am 25.6 29.7 23.3 87 1.6 E 7 9 4 5 1007.6 1007.5 0.0
24/01:00am 25.8 30.4 23.1 85 1.8 NE 4 7 2 4 1007.8 1007.7 0.0
24/12:30am 26.0 29.9 22.9 83 2.1 N 7 11 4 6 1008.3 1008.2 0.0
24/12:00am 26.3 29.5 23.0 82 2.2 N 11 17 6 9 1008.8 1008.7 0.0
 
Date/Time
EST
Temp
°C
App
Temp
°C
Dew
Point
°C
Rel
Hum
%
Delta-T
°C
Wind Press
QNH
hPa
Press
MSL
hPa
Rain since
9am
mm
Dir  Spd
km/h
Gust
km/h
Spd
kts
Gust
kts
23/11:30pm 27.1 30.7 23.8 82 2.3 NNE 11 17 6 9 1009.1 1009.0 0.0
23/11:00pm 27.8 31.5 24.6 83 2.2 NNE 13 28 7 15 1008.7 1008.6 0.0
23/10:30pm 27.5 34.0 25.1 87 1.7 CALM 0 0 0 0 1008.2 1008.1 0.0
23/10:00pm 27.8 34.3 25.0 85 2.0 CALM 0 0 0 0 1007.9 1007.8 0.0
23/09:30pm 27.8 34.1 24.8 84 2.1 CALM 0 0 0 0 1007.6 1007.5 0.0
23/09:00pm 28.0 33.2 24.8 83 2.2 W 6 7 3 4 1007.6 1007.5 0.0
23/08:30pm 28.3 33.3 24.5 80 2.6 WNW 6 7 3 4 1007.3 1007.2 0.0
23/08:00pm 28.5 32.9 23.4 74 3.5 WSW 6 11 3 6 1006.9 1006.8 0.0
23/07:30pm 29.3 34.5 22.8 68 4.4 CALM 0 0 0 0 1006.7 1006.6 0.0
23/07:00pm 30.7 35.6 22.3 61 5.7 CALM 0 0 0 0 1006.4 1006.3 0.0
23/06:30pm 31.5 35.6 20.8 53 7.1 CALM 0 0 0 0 1006.0 1005.9 0.0
23/06:00pm 32.8 34.5 19.3 45 8.9 SE 9 13 5 7 1005.5 1005.4 0.0

Other formats

Comma delimited format used in spreadsheet applications
http://www.bom.gov.au/fwo/IDQ60801/IDQ60801.94268.axf

JavaScript Object Notation format (JSON) in row-major order
http://www.bom.gov.au/fwo/IDQ60801/IDQ60801.94268.json

Data quality

Most of these data are generated automatically and are frequently updated. Quality checks on data are not normally performed. It is possible for incorrect values to appear. Refer to information at About Latest Weather Observations and please check the disclaimer before using these data.